Terminal Aerodrome Forecast
Issued by NWS Binghamton, NY

Home | Current Version | Previous Version | Text Only | Print | Product List | Glossary On
Versions: 1 2 3 4 5 6 7 8 9 10 11 12 13 14 15 16 17 18 19
000
FTUS41 KBGM 010800 AAA
TAFBGM
TAF AMD
KBGM 010853Z 0109/0206 13005KT 1SM BR OVC002
      TEMPO 0109/0113 3SM BR SCT002 OVC025
     FM011300 10005KT 3SM BR BKN025
     FM011600 11008KT P6SM BKN035
     FM020000 11005KT P6SM SCT035
     FM020400 11005KT 3SM BR BKN015=

USA.gov is the U.S. government's official web portal to all federal, state and local government web resources and services.